sensor_id;sensor_type;location;lat;lon;timestamp;P1;durP1;ratioP1;P2;durP2;ratioP2
37305;SDS011;23193;42.656;21.170;2022-08-11T00:00:39;9.55;;;5.82;;
37305;SDS011;23193;42.656;21.170;2022-08-11T00:03:08;11.52;;;5.57;;
37305;SDS011;23193;42.656;21.170;2022-08-11T00:05:52;7.93;;;4.90;;
37305;SDS011;23193;42.656;21.170;2022-08-11T00:08:39;11.52;;;5.28;;
37305;SDS011;23193;42.656;21.170;2022-08-11T00:11:06;14.82;;;5.70;;
37305;SDS011;23193;42.656;21.170;2022-08-11T00:13:37;11.48;;;5.90;;
37305;SDS011;23193;42.656;21.170;2022-08-11T00:16:04;9.52;;;5.85;;
37305;SDS011;23193;42.656;21.170;2022-08-11T00:18:42;16.42;;;6.55;;
37305;SDS011;23193;42.656;21.170;2022-08-11T00:21:08;9.25;;;6.45;;
37305;SDS011;23193;42.656;21.170;2022-08-11T00:23:40;14.48;;;5.97;;
37305;SDS011;23193;42.656;21.170;2022-08-11T00:26:06;10.07;;;5.20;;
37305;SDS011;23193;42.656;21.170;2022-08-11T00:28:33;11.20;;;5.32;;
37305;SDS011;23193;42.656;21.170;2022-08-11T00:31:04;11.32;;;5.57;;
37305;SDS011;23193;42.656;21.170;2022-08-11T00:33:37;12.10;;;5.47;;
37305;SDS011;23193;42.656;21.170;2022-08-11T00:36:04;13.20;;;5.57;;
37305;SDS011;23193;42.656;21.170;2022-08-11T00:38:33;11.18;;;5.95;;
37305;SDS011;23193;42.656;21.170;2022-08-11T00:59:08;8.60;;;4.72;;
37305;SDS011;23193;42.656;21.170;2022-08-11T01:01:56;8.07;;;4.60;;
37305;SDS011;23193;42.656;21.170;2022-08-11T01:51:24;12.00;;;4.32;;
37305;SDS011;23193;42.656;21.170;2022-08-11T01:59:22;9.30;;;5.05;;
37305;SDS011;23193;42.656;21.170;2022-08-11T02:04:35;9.45;;;5.25;;
37305;SDS011;23193;42.656;21.170;2022-08-11T02:14:59;11.52;;;4.97;;
37305;SDS011;23193;42.656;21.170;2022-08-11T02:20:20;12.35;;;5.30;;
37305;SDS011;23193;42.656;21.170;2022-08-11T02:23:53;12.45;;;5.97;;
37305;SDS011;23193;42.656;21.170;2022-08-11T02:28:34;13.68;;;5.25;;
37305;SDS011;23193;42.656;21.170;2022-08-11T02:31:08;15.25;;;5.15;;
37305;SDS011;23193;42.656;21.170;2022-08-11T02:34:39;15.38;;;5.57;;
37305;SDS011;23193;42.656;21.170;2022-08-11T02:36:48;16.17;;;6.03;;
37305;SDS011;23193;42.656;21.170;2022-08-11T02:39:17;18.27;;;7.03;;
37305;SDS011;23193;42.656;21.170;2022-08-11T02:50:33;14.05;;;5.40;;
37305;SDS011;23193;42.656;21.170;2022-08-11T02:53:02;12.90;;;6.03;;
37305;SDS011;23193;42.656;21.170;2022-08-11T02:55:34;9.45;;;5.70;;
37305;SDS011;23193;42.656;21.170;2022-08-11T03:00:42;9.15;;;5.82;;
37305;SDS011;23193;42.656;21.170;2022-08-11T03:03:22;13.65;;;7.50;;
37305;SDS011;23193;42.656;21.170;2022-08-11T03:05:55;15.20;;;8.55;;
37305;SDS011;23193;42.656;21.170;2022-08-11T03:08:35;13.50;;;7.55;;
37305;SDS011;23193;42.656;21.170;2022-08-11T03:19:48;13.10;;;8.50;;
37305;SDS011;23193;42.656;21.170;2022-08-11T03:22:20;15.30;;;7.97;;
37305;SDS011;23193;42.656;21.170;2022-08-11T03:24:53;14.85;;;7.80;;
37305;SDS011;23193;42.656;21.170;2022-08-11T03:35:00;14.60;;;7.05;;
37305;SDS011;23193;42.656;21.170;2022-08-11T03:45:47;12.57;;;7.43;;
37305;SDS011;23193;42.656;21.170;2022-08-11T03:53:43;14.85;;;6.25;;
37305;SDS011;23193;42.656;21.170;2022-08-11T03:56:21;8.73;;;5.65;;
37305;SDS011;23193;42.656;21.170;2022-08-11T03:59:05;10.25;;;5.53;;
37305;SDS011;23193;42.656;21.170;2022-08-11T04:20:27;22.20;;;11.65;;
37305;SDS011;23193;42.656;21.170;2022-08-11T04:25:48;13.25;;;7.43;;
37305;SDS011;23193;42.656;21.170;2022-08-11T04:33:33;15.18;;;11.55;;
37305;SDS011;23193;42.656;21.170;2022-08-11T05:15:00;12.27;;;4.97;;
37305;SDS011;23193;42.656;21.170;2022-08-11T05:18:06;8.70;;;4.78;;
37305;SDS011;23193;42.656;21.170;2022-08-11T05:20:53;10.90;;;5.22;;
37305;SDS011;23193;42.656;21.170;2022-08-11T05:23:39;21.48;;;5.32;;
37305;SDS011;23193;42.656;21.170;2022-08-11T05:26:25;12.90;;;4.30;;
37305;SDS011;23193;42.656;21.170;2022-08-11T05:32:29;11.82;;;3.85;;
37305;SDS011;23193;42.656;21.170;2022-08-11T05:35:14;9.63;;;4.00;;
37305;SDS011;23193;42.656;21.170;2022-08-11T05:37:42;12.73;;;4.22;;
37305;SDS011;23193;42.656;21.170;2022-08-11T05:40:27;14.18;;;3.38;;
37305;SDS011;23193;42.656;21.170;2022-08-11T05:43:13;8.20;;;3.38;;
37305;SDS011;23193;42.656;21.170;2022-08-11T05:45:59;6.45;;;4.05;;
37305;SDS011;23193;42.656;21.170;2022-08-11T05:48:44;19.77;;;3.63;;
37305;SDS011;23193;42.656;21.170;2022-08-11T05:51:42;20.02;;;3.55;;
37305;SDS011;23193;42.656;21.170;2022-08-11T05:54:27;5.75;;;3.80;;
37305;SDS011;23193;42.656;21.170;2022-08-11T05:57:19;8.35;;;3.45;;
37305;SDS011;23193;42.656;21.170;2022-08-11T05:59:46;8.32;;;3.50;;
37305;SDS011;23193;42.656;21.170;2022-08-11T06:02:12;6.05;;;3.60;;
37305;SDS011;23193;42.656;21.170;2022-08-11T06:04:39;8.38;;;3.60;;
37305;SDS011;23193;42.656;21.170;2022-08-11T06:07:06;13.20;;;3.33;;
37305;SDS011;23193;42.656;21.170;2022-08-11T06:12:04;14.40;;;3.50;;
37305;SDS011;23193;42.656;21.170;2022-08-11T06:14:31;9.02;;;3.25;;
37305;SDS011;23193;42.656;21.170;2022-08-11T06:16:58;9.65;;;3.65;;
37305;SDS011;23193;42.656;21.170;2022-08-11T06:19:38;9.88;;;3.88;;
37305;SDS011;23193;42.656;21.170;2022-08-11T06:22:06;6.50;;;3.27;;
37305;SDS011;23193;42.656;21.170;2022-08-11T06:24:33;6.95;;;4.00;;
37305;SDS011;23193;42.656;21.170;2022-08-11T06:27:01;10.80;;;3.50;;
37305;SDS011;23193;42.656;21.170;2022-08-11T06:29:28;4.32;;;2.90;;
37305;SDS011;23193;42.656;21.170;2022-08-11T06:31:56;7.53;;;3.28;;
37305;SDS011;23193;42.656;21.170;2022-08-11T06:34:32;8.52;;;3.25;;
37305;SDS011;23193;42.656;21.170;2022-08-11T06:39:36;11.02;;;3.55;;
37305;SDS011;23193;42.656;21.170;2022-08-11T06:42:06;9.18;;;4.63;;
37305;SDS011;23193;42.656;21.170;2022-08-11T06:44:43;22.27;;;4.38;;
37305;SDS011;23193;42.656;21.170;2022-08-11T06:47:13;23.05;;;3.88;;
37305;SDS011;23193;42.656;21.170;2022-08-11T06:49:43;11.30;;;4.13;;
37305;SDS011;23193;42.656;21.170;2022-08-11T06:52:33;12.52;;;4.07;;
37305;SDS011;23193;42.656;21.170;2022-08-11T06:55:04;7.30;;;3.10;;
37305;SDS011;23193;42.656;21.170;2022-08-11T07:00:20;10.98;;;3.53;;
37305;SDS011;23193;42.656;21.170;2022-08-11T07:06:14;11.60;;;4.00;;
37305;SDS011;23193;42.656;21.170;2022-08-11T07:14:27;5.82;;;3.03;;
37305;SDS011;23193;42.656;21.170;2022-08-11T07:17:14;8.68;;;3.17;;
37305;SDS011;23193;42.656;21.170;2022-08-11T07:19:42;6.03;;;2.88;;
37305;SDS011;23193;42.656;21.170;2022-08-11T07:22:31;9.32;;;3.05;;
37305;SDS011;23193;42.656;21.170;2022-08-11T07:25:16;11.10;;;2.40;;
37305;SDS011;23193;42.656;21.170;2022-08-11T07:28:02;8.20;;;3.03;;
37305;SDS011;23193;42.656;21.170;2022-08-11T07:30:48;7.45;;;2.35;;
37305;SDS011;23193;42.656;21.170;2022-08-11T07:33:21;3.72;;;2.00;;
37305;SDS011;23193;42.656;21.170;2022-08-11T07:35:51;10.65;;;2.60;;
37305;SDS011;23193;42.656;21.170;2022-08-11T07:38:21;9.25;;;2.55;;
37305;SDS011;23193;42.656;21.170;2022-08-11T07:40:47;6.90;;;2.30;;
37305;SDS011;23193;42.656;21.170;2022-08-11T07:43:13;6.00;;;1.98;;
37305;SDS011;23193;42.656;21.170;2022-08-11T07:45:43;3.08;;;1.70;;
37305;SDS011;23193;42.656;21.170;2022-08-11T07:48:29;2.97;;;1.80;;
37305;SDS011;23193;42.656;21.170;2022-08-11T07:51:20;2.55;;;1.55;;
37305;SDS011;23193;42.656;21.170;2022-08-11T07:54:05;1.98;;;1.40;;
37305;SDS011;23193;42.656;21.170;2022-08-11T07:56:33;4.60;;;1.30;;
37305;SDS011;23193;42.656;21.170;2022-08-11T07:58:59;3.55;;;1.27;;
37305;SDS011;23193;42.656;21.170;2022-08-11T08:01:45;7.00;;;1.40;;
37305;SDS011;23193;42.656;21.170;2022-08-11T08:04:30;5.63;;;1.48;;
37305;SDS011;23193;42.656;21.170;2022-08-11T08:07:15;9.68;;;1.58;;
37305;SDS011;23193;42.656;21.170;2022-08-11T08:10:03;3.97;;;1.80;;
37305;SDS011;23193;42.656;21.170;2022-08-11T08:12:49;7.22;;;2.75;;
37305;SDS011;23193;42.656;21.170;2022-08-11T08:15:34;4.15;;;1.50;;
37305;SDS011;23193;42.656;21.170;2022-08-11T08:18:18;8.93;;;1.85;;
37305;SDS011;23193;42.656;21.170;2022-08-11T08:20:47;4.70;;;1.65;;
37305;SDS011;23193;42.656;21.170;2022-08-11T08:23:14;9.57;;;1.55;;
37305;SDS011;23193;42.656;21.170;2022-08-11T08:25:42;4.63;;;1.60;;
37305;SDS011;23193;42.656;21.170;2022-08-11T08:28:09;5.57;;;1.35;;
37305;SDS011;23193;42.656;21.170;2022-08-11T08:30:35;3.67;;;1.45;;
37305;SDS011;23193;42.656;21.170;2022-08-11T08:33:44;2.83;;;1.45;;
37305;SDS011;23193;42.656;21.170;2022-08-11T08:36:03;3.38;;;1.30;;
37305;SDS011;23193;42.656;21.170;2022-08-11T08:38:39;4.32;;;1.45;;
37305;SDS011;23193;42.656;21.170;2022-08-11T08:41:06;2.05;;;1.40;;
37305;SDS011;23193;42.656;21.170;2022-08-11T08:43:32;4.78;;;1.50;;
37305;SDS011;23193;42.656;21.170;2022-08-11T08:45:59;6.95;;;1.63;;
37305;SDS011;23193;42.656;21.170;2022-08-11T08:48:26;4.75;;;1.70;;
37305;SDS011;23193;42.656;21.170;2022-08-11T08:50:55;9.40;;;1.67;;
37305;SDS011;23193;42.656;21.170;2022-08-11T08:53:44;6.80;;;1.35;;
37305;SDS011;23193;42.656;21.170;2022-08-11T08:56:11;3.67;;;1.52;;
37305;SDS011;23193;42.656;21.170;2022-08-11T08:58:37;4.93;;;1.35;;
37305;SDS011;23193;42.656;21.170;2022-08-11T09:01:05;5.03;;;1.40;;
37305;SDS011;23193;42.656;21.170;2022-08-11T09:03:35;4.72;;;1.30;;
37305;SDS011;23193;42.656;21.170;2022-08-11T09:06:02;2.03;;;1.30;;
37305;SDS011;23193;42.656;21.170;2022-08-11T09:08:29;4.05;;;1.40;;
37305;SDS011;23193;42.656;21.170;2022-08-11T09:10:55;3.28;;;1.63;;
37305;SDS011;23193;42.656;21.170;2022-08-11T09:13:41;3.47;;;1.20;;
37305;SDS011;23193;42.656;21.170;2022-08-11T09:16:08;3.53;;;1.40;;
37305;SDS011;23193;42.656;21.170;2022-08-11T09:18:35;7.70;;;1.80;;
37305;SDS011;23193;42.656;21.170;2022-08-11T09:21:02;8.27;;;2.00;;
37305;SDS011;23193;42.656;21.170;2022-08-11T09:23:28;7.03;;;1.63;;
37305;SDS011;23193;42.656;21.170;2022-08-11T09:26:14;5.63;;;1.10;;
37305;SDS011;23193;42.656;21.170;2022-08-11T09:28:59;2.72;;;1.00;;
37305;SDS011;23193;42.656;21.170;2022-08-11T09:31:29;7.13;;;1.23;;
37305;SDS011;23193;42.656;21.170;2022-08-11T09:33:57;4.25;;;1.30;;
37305;SDS011;23193;42.656;21.170;2022-08-11T09:36:23;4.78;;;1.23;;
37305;SDS011;23193;42.656;21.170;2022-08-11T09:39:09;3.72;;;1.50;;
37305;SDS011;23193;42.656;21.170;2022-08-11T09:41:54;2.88;;;1.52;;
37305;SDS011;23193;42.656;21.170;2022-08-11T09:44:20;4.35;;;1.20;;
37305;SDS011;23193;42.656;21.170;2022-08-11T09:47:05;5.38;;;1.55;;
37305;SDS011;23193;42.656;21.170;2022-08-11T09:49:38;4.53;;;1.55;;
37305;SDS011;23193;42.656;21.170;2022-08-11T09:52:05;3.55;;;1.38;;
37305;SDS011;23193;42.656;21.170;2022-08-11T09:54:33;3.97;;;1.40;;
37305;SDS011;23193;42.656;21.170;2022-08-11T09:56:59;3.55;;;1.42;;
37305;SDS011;23193;42.656;21.170;2022-08-11T09:59:44;3.03;;;1.35;;
37305;SDS011;23193;42.656;21.170;2022-08-11T10:02:10;5.35;;;1.45;;
37305;SDS011;23193;42.656;21.170;2022-08-11T10:04:43;4.95;;;1.77;;
37305;SDS011;23193;42.656;21.170;2022-08-11T10:07:09;7.13;;;1.88;;
37305;SDS011;23193;42.656;21.170;2022-08-11T10:09:43;4.55;;;2.05;;
37305;SDS011;23193;42.656;21.170;2022-08-11T10:12:11;4.28;;;1.23;;
37305;SDS011;23193;42.656;21.170;2022-08-11T10:14:41;5.00;;;2.00;;
37305;SDS011;23193;42.656;21.170;2022-08-11T10:17:28;11.88;;;1.55;;
37305;SDS011;23193;42.656;21.170;2022-08-11T10:19:55;5.97;;;1.75;;
37305;SDS011;23193;42.656;21.170;2022-08-11T10:22:23;3.83;;;1.88;;
37305;SDS011;23193;42.656;21.170;2022-08-11T10:25:08;4.82;;;1.63;;
37305;SDS011;23193;42.656;21.170;2022-08-11T10:27:54;7.97;;;2.72;;
37305;SDS011;23193;42.656;21.170;2022-08-11T10:30:24;2.53;;;1.73;;
37305;SDS011;23193;42.656;21.170;2022-08-11T10:33:11;4.00;;;1.83;;
37305;SDS011;23193;42.656;21.170;2022-08-11T10:35:57;2.20;;;1.65;;
37305;SDS011;23193;42.656;21.170;2022-08-11T10:38:24;5.30;;;1.50;;
37305;SDS011;23193;42.656;21.170;2022-08-11T10:40:51;3.05;;;1.70;;
37305;SDS011;23193;42.656;21.170;2022-08-11T10:43:38;11.52;;;2.25;;
37305;SDS011;23193;42.656;21.170;2022-08-11T10:46:06;4.30;;;1.63;;
37305;SDS011;23193;42.656;21.170;2022-08-11T10:48:51;2.88;;;1.90;;
37305;SDS011;23193;42.656;21.170;2022-08-11T10:51:18;12.93;;;2.97;;
37305;SDS011;23193;42.656;21.170;2022-08-11T10:53:48;3.42;;;1.67;;
37305;SDS011;23193;42.656;21.170;2022-08-11T10:56:34;3.72;;;1.88;;
37305;SDS011;23193;42.656;21.170;2022-08-11T10:59:20;4.05;;;2.83;;
37305;SDS011;23193;42.656;21.170;2022-08-11T11:01:47;5.85;;;1.80;;
37305;SDS011;23193;42.656;21.170;2022-08-11T11:04:17;5.85;;;1.42;;
37305;SDS011;23193;42.656;21.170;2022-08-11T11:09:27;3.85;;;2.42;;
37305;SDS011;23193;42.656;21.170;2022-08-11T11:12:02;7.57;;;2.72;;
37305;SDS011;23193;42.656;21.170;2022-08-11T11:15:10;3.60;;;1.83;;
37305;SDS011;23193;42.656;21.170;2022-08-11T11:17:57;4.75;;;2.03;;
37305;SDS011;23193;42.656;21.170;2022-08-11T11:23:02;8.35;;;2.70;;
37305;SDS011;23193;42.656;21.170;2022-08-11T11:25:35;3.33;;;2.25;;
37305;SDS011;23193;42.656;21.170;2022-08-11T11:28:09;7.07;;;2.10;;
37305;SDS011;23193;42.656;21.170;2022-08-11T11:30:43;3.78;;;2.20;;
37305;SDS011;23193;42.656;21.170;2022-08-11T11:33:22;3.63;;;1.95;;
37305;SDS011;23193;42.656;21.170;2022-08-11T11:38:31;7.18;;;2.70;;
37305;SDS011;23193;42.656;21.170;2022-08-11T11:40:57;5.80;;;2.13;;
37305;SDS011;23193;42.656;21.170;2022-08-11T11:43:42;7.40;;;1.85;;
37305;SDS011;23193;42.656;21.170;2022-08-11T11:46:10;8.77;;;2.45;;
37305;SDS011;23193;42.656;21.170;2022-08-11T11:48:38;3.00;;;2.05;;
37305;SDS011;23193;42.656;21.170;2022-08-11T11:51:05;11.20;;;3.42;;
37305;SDS011;23193;42.656;21.170;2022-08-11T11:53:31;5.32;;;2.45;;
37305;SDS011;23193;42.656;21.170;2022-08-11T11:55:58;2.78;;;1.95;;
37305;SDS011;23193;42.656;21.170;2022-08-11T11:58:26;4.22;;;2.50;;
37305;SDS011;23193;42.656;21.170;2022-08-11T12:01:12;5.90;;;2.42;;
37305;SDS011;23193;42.656;21.170;2022-08-11T12:03:45;2.63;;;1.77;;
37305;SDS011;23193;42.656;21.170;2022-08-11T12:06:12;5.00;;;2.47;;
37305;SDS011;23193;42.656;21.170;2022-08-11T12:08:39;3.28;;;2.00;;
37305;SDS011;23193;42.656;21.170;2022-08-11T12:11:06;1.70;;;1.60;;
37305;SDS011;23193;42.656;21.170;2022-08-11T12:13:52;2.15;;;1.80;;
37305;SDS011;23193;42.656;21.170;2022-08-11T12:16:20;3.20;;;1.70;;
37305;SDS011;23193;42.656;21.170;2022-08-11T12:18:48;4.38;;;2.13;;
37305;SDS011;23193;42.656;21.170;2022-08-11T12:21:15;3.35;;;1.85;;
37305;SDS011;23193;42.656;21.170;2022-08-11T12:23:42;2.60;;;1.67;;
37305;SDS011;23193;42.656;21.170;2022-08-11T12:26:27;2.45;;;1.73;;
37305;SDS011;23193;42.656;21.170;2022-08-11T12:29:12;4.88;;;2.33;;
37305;SDS011;23193;42.656;21.170;2022-08-11T12:31:39;5.90;;;1.67;;
37305;SDS011;23193;42.656;21.170;2022-08-11T12:34:06;4.72;;;1.73;;
37305;SDS011;23193;42.656;21.170;2022-08-11T12:36:36;2.05;;;1.52;;
37305;SDS011;23193;42.656;21.170;2022-08-11T12:39:09;3.00;;;1.67;;
37305;SDS011;23193;42.656;21.170;2022-08-11T12:41:37;3.35;;;1.50;;
37305;SDS011;23193;42.656;21.170;2022-08-11T12:44:23;2.85;;;1.40;;
37305;SDS011;23193;42.656;21.170;2022-08-11T12:47:09;3.83;;;1.80;;
37305;SDS011;23193;42.656;21.170;2022-08-11T12:49:37;2.28;;;1.75;;
37305;SDS011;23193;42.656;21.170;2022-08-11T12:52:26;4.00;;;1.88;;
37305;SDS011;23193;42.656;21.170;2022-08-11T12:54:57;2.80;;;2.20;;
37305;SDS011;23193;42.656;21.170;2022-08-11T12:57:25;4.72;;;2.38;;
37305;SDS011;23193;42.656;21.170;2022-08-11T13:00:12;15.75;;;2.35;;
37305;SDS011;23193;42.656;21.170;2022-08-11T13:02:57;3.00;;;1.60;;
37305;SDS011;23193;42.656;21.170;2022-08-11T13:05:42;11.80;;;2.42;;
37305;SDS011;23193;42.656;21.170;2022-08-11T13:08:09;4.88;;;2.20;;
37305;SDS011;23193;42.656;21.170;2022-08-11T13:10:35;3.20;;;2.17;;
37305;SDS011;23193;42.656;21.170;2022-08-11T13:13:20;4.05;;;2.20;;
37305;SDS011;23193;42.656;21.170;2022-08-11T13:15:47;5.13;;;2.08;;
37305;SDS011;23193;42.656;21.170;2022-08-11T13:18:21;2.20;;;1.48;;
37305;SDS011;23193;42.656;21.170;2022-08-11T13:20:54;4.00;;;1.90;;
37305;SDS011;23193;42.656;21.170;2022-08-11T13:23:20;5.30;;;2.03;;
37305;SDS011;23193;42.656;21.170;2022-08-11T13:25:47;10.38;;;2.60;;
37305;SDS011;23193;42.656;21.170;2022-08-11T13:28:13;8.02;;;2.33;;
37305;SDS011;23193;42.656;21.170;2022-08-11T13:30:41;5.70;;;2.28;;
37305;SDS011;23193;42.656;21.170;2022-08-11T13:33:26;3.75;;;1.63;;
37305;SDS011;23193;42.656;21.170;2022-08-11T13:35:52;3.85;;;1.48;;
37305;SDS011;23193;42.656;21.170;2022-08-11T13:38:21;8.15;;;1.58;;
37305;SDS011;23193;42.656;21.170;2022-08-11T13:40:50;4.63;;;3.13;;
37305;SDS011;23193;42.656;21.170;2022-08-11T13:43:18;6.22;;;1.73;;
37305;SDS011;23193;42.656;21.170;2022-08-11T13:45:44;2.60;;;1.50;;
37305;SDS011;23193;42.656;21.170;2022-08-11T13:48:11;4.30;;;1.90;;
37305;SDS011;23193;42.656;21.170;2022-08-11T13:50:39;3.22;;;1.75;;
37305;SDS011;23193;42.656;21.170;2022-08-11T13:53:25;8.52;;;1.50;;
37305;SDS011;23193;42.656;21.170;2022-08-11T13:55:52;4.35;;;2.35;;
37305;SDS011;23193;42.656;21.170;2022-08-11T13:58:19;4.00;;;1.60;;
37305;SDS011;23193;42.656;21.170;2022-08-11T14:00:49;2.30;;;1.67;;
37305;SDS011;23193;42.656;21.170;2022-08-11T14:03:16;3.58;;;2.40;;
37305;SDS011;23193;42.656;21.170;2022-08-11T14:05:48;10.75;;;2.70;;
37305;SDS011;23193;42.656;21.170;2022-08-11T14:08:17;5.68;;;2.33;;
37305;SDS011;23193;42.656;21.170;2022-08-11T14:10:45;7.05;;;2.08;;
37305;SDS011;23193;42.656;21.170;2022-08-11T14:13:32;4.38;;;1.98;;
37305;SDS011;23193;42.656;21.170;2022-08-11T14:16:11;10.32;;;2.55;;
37305;SDS011;23193;42.656;21.170;2022-08-11T14:18:44;12.35;;;2.03;;
37305;SDS011;23193;42.656;21.170;2022-08-11T14:21:12;6.57;;;1.70;;
37305;SDS011;23193;42.656;21.170;2022-08-11T14:23:58;2.40;;;1.42;;
37305;SDS011;23193;42.656;21.170;2022-08-11T14:26:24;5.00;;;2.00;;
37305;SDS011;23193;42.656;21.170;2022-08-11T14:29:10;2.78;;;1.67;;
37305;SDS011;23193;42.656;21.170;2022-08-11T14:31:39;6.43;;;1.85;;
37305;SDS011;23193;42.656;21.170;2022-08-11T14:34:08;2.97;;;1.80;;
37305;SDS011;23193;42.656;21.170;2022-08-11T14:36:41;4.07;;;1.88;;
37305;SDS011;23193;42.656;21.170;2022-08-11T14:39:09;4.43;;;1.67;;
37305;SDS011;23193;42.656;21.170;2022-08-11T14:41:36;2.00;;;1.65;;
37305;SDS011;23193;42.656;21.170;2022-08-11T14:44:21;4.53;;;1.65;;
37305;SDS011;23193;42.656;21.170;2022-08-11T14:47:06;3.30;;;1.73;;
37305;SDS011;23193;42.656;21.170;2022-08-11T14:49:38;5.63;;;1.90;;
37305;SDS011;23193;42.656;21.170;2022-08-11T14:52:09;7.20;;;1.95;;
37305;SDS011;23193;42.656;21.170;2022-08-11T14:54:35;4.30;;;1.25;;
37305;SDS011;23193;42.656;21.170;2022-08-11T14:57:21;3.28;;;1.73;;
37305;SDS011;23193;42.656;21.170;2022-08-11T14:59:48;3.00;;;1.70;;
37305;SDS011;23193;42.656;21.170;2022-08-11T15:02:15;2.75;;;1.80;;
37305;SDS011;23193;42.656;21.170;2022-08-11T15:05:02;3.45;;;1.95;;
37305;SDS011;23193;42.656;21.170;2022-08-11T15:07:30;5.43;;;1.75;;
37305;SDS011;23193;42.656;21.170;2022-08-11T15:09:57;3.20;;;1.70;;
37305;SDS011;23193;42.656;21.170;2022-08-11T15:12:23;3.53;;;2.05;;
37305;SDS011;23193;42.656;21.170;2022-08-11T15:14:50;2.70;;;1.48;;
37305;SDS011;23193;42.656;21.170;2022-08-11T15:17:35;4.32;;;1.65;;
37305;SDS011;23193;42.656;21.170;2022-08-11T15:20:03;3.80;;;1.40;;
37305;SDS011;23193;42.656;21.170;2022-08-11T15:22:49;5.32;;;1.67;;
37305;SDS011;23193;42.656;21.170;2022-08-11T15:25:34;5.43;;;1.80;;
37305;SDS011;23193;42.656;21.170;2022-08-11T15:28:02;3.05;;;1.90;;
37305;SDS011;23193;42.656;21.170;2022-08-11T15:30:53;6.05;;;1.50;;
37305;SDS011;23193;42.656;21.170;2022-08-11T15:33:42;8.23;;;1.80;;
37305;SDS011;23193;42.656;21.170;2022-08-11T15:36:28;3.28;;;1.80;;
37305;SDS011;23193;42.656;21.170;2022-08-11T15:44:42;3.58;;;1.52;;
37305;SDS011;23193;42.656;21.170;2022-08-11T15:47:37;6.45;;;1.63;;
37305;SDS011;23193;42.656;21.170;2022-08-11T15:50:04;3.50;;;1.40;;
37305;SDS011;23193;42.656;21.170;2022-08-11T15:52:31;7.93;;;1.73;;
37305;SDS011;23193;42.656;21.170;2022-08-11T15:54:59;4.53;;;1.83;;
37305;SDS011;23193;42.656;21.170;2022-08-11T15:57:26;2.28;;;1.40;;
37305;SDS011;23193;42.656;21.170;2022-08-11T16:00:12;5.63;;;1.30;;
37305;SDS011;23193;42.656;21.170;2022-08-11T16:02:57;1.27;;;1.00;;
37305;SDS011;23193;42.656;21.170;2022-08-11T16:05:43;2.85;;;1.40;;
37305;SDS011;23193;42.656;21.170;2022-08-11T16:08:10;2.30;;;1.33;;
37305;SDS011;23193;42.656;21.170;2022-08-11T16:10:37;1.58;;;1.40;;
37305;SDS011;23193;42.656;21.170;2022-08-11T16:13:04;5.18;;;1.85;;
37305;SDS011;23193;42.656;21.170;2022-08-11T16:15:38;2.65;;;1.38;;
37305;SDS011;23193;42.656;21.170;2022-08-11T16:18:25;4.68;;;1.45;;
37305;SDS011;23193;42.656;21.170;2022-08-11T16:21:17;2.58;;;1.20;;
37305;SDS011;23193;42.656;21.170;2022-08-11T16:23:44;4.07;;;1.50;;
37305;SDS011;23193;42.656;21.170;2022-08-11T16:26:11;5.05;;;1.50;;
37305;SDS011;23193;42.656;21.170;2022-08-11T16:28:38;3.00;;;1.33;;
37305;SDS011;23193;42.656;21.170;2022-08-11T16:31:05;4.90;;;1.20;;
37305;SDS011;23193;42.656;21.170;2022-08-11T16:33:35;3.30;;;0.90;;
37305;SDS011;23193;42.656;21.170;2022-08-11T16:36:02;3.65;;;1.58;;
37305;SDS011;23193;42.656;21.170;2022-08-11T16:38:47;2.00;;;1.70;;
37305;SDS011;23193;42.656;21.170;2022-08-11T16:41:15;2.53;;;1.70;;
37305;SDS011;23193;42.656;21.170;2022-08-11T16:44:01;2.63;;;1.63;;
37305;SDS011;23193;42.656;21.170;2022-08-11T16:46:47;2.30;;;1.08;;
37305;SDS011;23193;42.656;21.170;2022-08-11T16:49:30;2.25;;;1.27;;
37305;SDS011;23193;42.656;21.170;2022-08-11T16:51:57;2.70;;;1.55;;
37305;SDS011;23193;42.656;21.170;2022-08-11T16:54:27;4.93;;;1.08;;
37305;SDS011;23193;42.656;21.170;2022-08-11T16:56:54;2.42;;;1.40;;
37305;SDS011;23193;42.656;21.170;2022-08-11T16:59:31;2.10;;;1.10;;
37305;SDS011;23193;42.656;21.170;2022-08-11T17:02:16;1.55;;;1.20;;
37305;SDS011;23193;42.656;21.170;2022-08-11T17:05:09;4.07;;;1.50;;
37305;SDS011;23193;42.656;21.170;2022-08-11T17:07:55;4.70;;;1.90;;
37305;SDS011;23193;42.656;21.170;2022-08-11T17:10:43;4.28;;;1.45;;
37305;SDS011;23193;42.656;21.170;2022-08-11T17:13:35;7.18;;;2.03;;
37305;SDS011;23193;42.656;21.170;2022-08-11T17:18:35;5.60;;;1.70;;
37305;SDS011;23193;42.656;21.170;2022-08-11T17:21:06;4.82;;;1.60;;
37305;SDS011;23193;42.656;21.170;2022-08-11T17:23:37;4.93;;;1.90;;
37305;SDS011;23193;42.656;21.170;2022-08-11T17:26:11;10.18;;;1.65;;
37305;SDS011;23193;42.656;21.170;2022-08-11T17:28:37;5.18;;;1.33;;
37305;SDS011;23193;42.656;21.170;2022-08-11T17:31:06;2.03;;;1.23;;
37305;SDS011;23193;42.656;21.170;2022-08-11T17:33:52;2.85;;;1.70;;
37305;SDS011;23193;42.656;21.170;2022-08-11T17:36:39;5.55;;;1.85;;
37305;SDS011;23193;42.656;21.170;2022-08-11T17:39:10;2.40;;;1.42;;
37305;SDS011;23193;42.656;21.170;2022-08-11T17:41:37;5.25;;;1.52;;
37305;SDS011;23193;42.656;21.170;2022-08-11T17:44:23;2.47;;;1.52;;
37305;SDS011;23193;42.656;21.170;2022-08-11T17:47:08;5.90;;;2.10;;
37305;SDS011;23193;42.656;21.170;2022-08-11T17:49:53;13.88;;;3.00;;
37305;SDS011;23193;42.656;21.170;2022-08-11T17:52:19;5.03;;;2.25;;
37305;SDS011;23193;42.656;21.170;2022-08-11T17:55:05;2.92;;;2.00;;
37305;SDS011;23193;42.656;21.170;2022-08-11T17:57:51;2.75;;;1.48;;
37305;SDS011;23193;42.656;21.170;2022-08-11T18:00:36;5.65;;;2.17;;
37305;SDS011;23193;42.656;21.170;2022-08-11T18:03:02;4.13;;;1.55;;
37305;SDS011;23193;42.656;21.170;2022-08-11T18:05:48;4.15;;;1.83;;
37305;SDS011;23193;42.656;21.170;2022-08-11T18:08:15;3.20;;;1.52;;
37305;SDS011;23193;42.656;21.170;2022-08-11T18:11:01;5.13;;;1.75;;
37305;SDS011;23193;42.656;21.170;2022-08-11T18:13:46;4.63;;;1.20;;
37305;SDS011;23193;42.656;21.170;2022-08-11T18:16:32;3.72;;;1.75;;
37305;SDS011;23193;42.656;21.170;2022-08-11T18:19:16;2.00;;;1.60;;
37305;SDS011;23193;42.656;21.170;2022-08-11T18:22:05;1.50;;;1.02;;
37305;SDS011;23193;42.656;21.170;2022-08-11T18:24:55;4.28;;;1.27;;
37305;SDS011;23193;42.656;21.170;2022-08-11T18:27:42;2.22;;;1.48;;
37305;SDS011;23193;42.656;21.170;2022-08-11T18:30:29;3.88;;;1.55;;
37305;SDS011;23193;42.656;21.170;2022-08-11T18:33:15;2.50;;;1.40;;
37305;SDS011;23193;42.656;21.170;2022-08-11T18:36:01;12.00;;;1.92;;
37305;SDS011;23193;42.656;21.170;2022-08-11T18:38:46;4.07;;;1.40;;
37305;SDS011;23193;42.656;21.170;2022-08-11T18:41:33;2.67;;;1.60;;
37305;SDS011;23193;42.656;21.170;2022-08-11T18:44:19;7.20;;;1.90;;
37305;SDS011;23193;42.656;21.170;2022-08-11T18:47:07;2.78;;;1.30;;
37305;SDS011;23193;42.656;21.170;2022-08-11T18:49:52;3.67;;;1.40;;
37305;SDS011;23193;42.656;21.170;2022-08-11T18:52:40;2.33;;;1.55;;
37305;SDS011;23193;42.656;21.170;2022-08-11T18:55:26;3.13;;;1.50;;
37305;SDS011;23193;42.656;21.170;2022-08-11T18:58:12;5.80;;;3.85;;
37305;SDS011;23193;42.656;21.170;2022-08-11T19:00:58;1.83;;;1.48;;
37305;SDS011;23193;42.656;21.170;2022-08-11T19:03:44;3.03;;;1.40;;
37305;SDS011;23193;42.656;21.170;2022-08-11T19:06:29;4.10;;;1.45;;
37305;SDS011;23193;42.656;21.170;2022-08-11T19:09:15;9.30;;;1.70;;